Scroll down
FLIGHT INFORMATION
Delta Air Lines

DAL718

At Arrival Gate

KSEA
 KATL
DATE: 2020-06-27
GATE:  -
GATE DEPARTURE: 15:57
TAKEOFF: 16:13
DATE: 2020-06-27
GATE:  -
LANDING: 20:32
GATE ARRIVAL: 20:36
FLIGHT DATA
Crew: 
Speed: 
469 kts
Altitude: 
35,017 ft
Stage Length: 
1,892.6 nm
Block Time: 
4.6 hrs
Flight Time: 
4.3 hrs
Fuel Used: 
28,552 lb
Cleared Route: KSEA SEA NORMY BLUIT MWH HIA SHR RAP OBH BUM MEM HUTCC KNSAW RUSSA KATL
TRACK DATA
50,000 ft 1,000 kts
AIRCRAFT INFO AND CUMULATIVE STATS
Aircraft Type: 
B739ERSSW
Registration: 
SELCAL: 
MSN/LN: 
63536 / 7507
Operator: 
Total Flights: 
4
Total Block Time: 
12.4 hrs
Total Flight Time: 
11.3 hrs
Total Fuel Used: 
75,974 lb
DATALINK LOG | Newest first | Current as of: 2022-09-30 00:46:33
LABEL SEQUENCE CONTENT Dn/Up
QC375020:32▼ Dn
2U0548KATL 271952Z 23009KT 10SM FEW035 BKN150 BKN250 30/21 A3007 RMK AO2 SLP173 T03000206▲ Up
2S0548KATL▼ Dn
QB183316:13▼ Dn
QA005515:57 36.8▼ Dn
A34752CLEARED TO KATL VIA SEA NORMY J90 MWH HIA SHR RAP OBH BUM MEM HUTCC KNSAW RUSSA GLAVN1. SQUAWK .▲ Up
2U4750KATL 271452Z 25008KT 6SM DU FEW150 OVC250 26/18 A3016 RMK AO2 SLP204 BINOVC T02610178 58004▲ Up
2U4749KSEA 271453Z 27003KT 3/4SM R16L/4000V5500FT -DZ BR OVC004 13/12 A3000 RMK AO2 SLP164 P0014 60024 T01330122 53001▲ Up
2S4749KSEA KATL▼ Dn
Q04641[LINK ACK]▲ Up
Q04641[LINK TEST]▼ Dn


AIRCRAFT HISTORY
FLIGHT DATE FLIGHT NO. ORIGIN DESTINATION CLEARED ROUTE BLOCK TIME FLIGHT TIME FUEL USED PILOT
2021-06-06DAL519KCLT KLGA KCLT MESHY GULFY BARMY BATTA RDU HAKOK JADEE ZITTO HPW HUBBS PXT GARED RIDGY ENO SKIPY BESSI EDJER DAVYS HOLEY BRAND KORRY RBV TYKES MINKS RENUE APPLE PROUD GRENE RW041.6 hrs1.4 hrs10,892 lbChemtrails
2020-07-22KATL KCLT KATL FUTBL ZALLE GGOLF MCKLS PHIIL KCLT1 hrs0.8 hrs6,951 lbMichael Backes
2020-06-27DAL718KSEA KATL KSEA SEA NORMY BLUIT MWH HIA SHR RAP OBH BUM MEM HUTCC KNSAW RUSSA KATL4.6 hrs4.3 hrs28,552 lbMichael Roth
2020-06-25DAL1491KATL KSEA KATL SNUFY BDODD CUTTN HANKO GAD MEM RZC DELAT PENUT CUGGA LEWOY MOCTU MBW JUGIV DNW BAXGO LEZLE SUNED KSEA5.2 hrs4.7 hrs29,579 lbMichael Roth